St Lucie County International Airport
KFPR : now visible

Airfield :











YOU CAN JOIN US ON...

 
LOGIN :

Register | Disclaimer

   EN    FR    IT 

 









Legend :    VFR   Marginal VFR   IFR   Intensive IFR   Very Intensive IFR
Visi :
Ceiling :
>= 8 km
>= 3000ft
5 to 8 km
1000 to 3000 ft
1500m to 5 km
500 to 1000 ft
800 to 1500m
200 to 500 ft
< 800m
< 200 ft
Symbols :   Thunderstorms  Fog  Heavy snow  Heavy precipitations  Wind > 20 kt






- Airport Elevation : 24 ft
- IATA code : FPR


KFPR - St Lucie County International

CURRENT METAR :
  • 190453Z AUTO 17003KT 10SM OVC037 20/15 A3022 RMK AO2 SLP234 T02000150 402500200

EXPIRED METARs :
  • 190353Z AUTO 15004KT 10SM SCT033 OVC041 22/16 A3023 RMK AO2 SLP237 T02170156

TAF KFPR
Valid from the 19 at 06:00 until the 20 at 06:00 UTC


190539Z 1906/2006 16004KT P6SM SCT035
TEMPO 1906/1908 BKN035
FM191500 18011KT P6SM SCT035 SCT250
FM192200 27008KT P6SM SCT030 BKN250
FM200100 26005KT P6SM BKN025 BKN100



MET'MAP, your aeronautical weather chart ! - Copyright ORBIFLY December 2007 - Disclaimer

ORBIFLY MET'MAP TEAM :

Programming & Development : Alexandra Zaïnal
Concept & original design : Baudouin d'Aumeries
Assistance for programming : Marc-Olivier Méhu
Technical & hardware support : Manuel Goepfert

Contact : metmap@orbifly.com




SOURCES & CREDITS :

   NOAA       Earth
Advisory